createdAt,value
2019-02-21T00:00:23.943Z,30.47
2019-02-21T00:05:12.128Z,28.87
2019-02-21T00:10:08.370Z,29.07
2019-02-21T00:15:02.932Z,29.43
2019-02-21T00:19:57.532Z,30.77
2019-02-21T00:24:52.196Z,30.97
2019-02-21T00:29:46.792Z,29.77
2019-02-21T00:34:41.365Z,30.90
2019-02-21T00:39:35.961Z,29.30
2019-02-21T00:44:30.567Z,28.93
2019-02-21T00:49:25.199Z,28.30
2019-02-21T00:54:19.858Z,29.07
2019-02-21T00:59:14.537Z,28.47
2019-02-21T01:04:09.122Z,30.63
2019-02-21T01:09:04.801Z,31.27
2019-02-21T01:13:59.361Z,30.87
2019-02-21T01:18:53.974Z,33.20
2019-02-21T01:23:48.535Z,31.73
2019-02-21T01:28:43.210Z,30.73
2019-02-21T01:33:37.863Z,33.90
2019-02-21T01:38:32.492Z,34.60
2019-02-21T01:43:27.033Z,33.37
2019-02-21T01:48:21.642Z,34.57
2019-02-21T01:53:16.281Z,33.43
2019-02-21T01:58:11.127Z,30.37
2019-02-21T02:03:05.848Z,31.13
2019-02-21T02:08:00.444Z,31.60
2019-02-21T02:12:55.045Z,31.03
2019-02-21T02:17:49.625Z,34.63
2019-02-21T02:23:03.545Z,34.30
2019-02-21T02:27:58.149Z,34.33
2019-02-21T02:32:52.738Z,37.93
2019-02-21T02:37:47.347Z,37.23
2019-02-21T02:42:41.907Z,37.57
2019-02-21T02:47:36.513Z,35.17
2019-02-21T02:52:31.099Z,34.43
2019-02-21T02:57:25.703Z,35.63
2019-02-21T03:02:20.270Z,35.10
2019-02-21T03:07:14.875Z,32.73
2019-02-21T03:12:09.446Z,32.43
2019-02-21T03:17:04.119Z,34.10
2019-02-21T03:21:58.682Z,35.27
2019-02-21T03:26:53.296Z,37.33
2019-02-21T03:31:54.767Z,36.53
2019-02-21T03:36:44.205Z,35.40
2019-02-21T03:41:38.853Z,36.70
2019-02-21T03:46:33.451Z,39.33
2019-02-21T03:51:28.038Z,35.67
2019-02-21T03:56:22.734Z,35.00
2019-02-21T04:01:17.504Z,33.50
2019-02-21T04:06:12.140Z,34.70
2019-02-21T04:11:06.784Z,39.50
2019-02-21T04:16:01.452Z,45.63
2019-02-21T04:20:56.122Z,42.00
2019-02-21T04:25:50.712Z,37.20
2019-02-21T04:30:45.292Z,39.70
2019-02-21T04:35:39.939Z,38.50
2019-02-21T04:40:34.567Z,38.57
2019-02-21T04:45:29.147Z,38.77
2019-02-21T04:50:23.739Z,35.30
2019-02-21T04:55:18.324Z,40.53
2019-02-21T05:00:14.026Z,36.97
2019-02-21T05:05:08.690Z,39.17
2019-02-21T05:10:03.283Z,44.77
2019-02-21T05:14:57.875Z,43.90
2019-02-21T05:19:52.475Z,41.87
2019-02-21T05:24:47.065Z,42.50
2019-02-21T05:29:41.666Z,37.33
2019-02-21T05:34:52.724Z,40.60
2019-02-21T05:39:54.479Z,39.27
2019-02-21T05:44:50.819Z,40.23
2019-02-21T05:49:54.382Z,40.33
2019-02-21T05:54:50.633Z,40.13
2019-02-21T05:59:50.472Z,41.40
2019-02-21T06:04:46.698Z,37.60
2019-02-21T06:09:45.589Z,38.60
2019-02-21T06:14:47.594Z,37.77
2019-02-21T06:19:52.532Z,37.97
2019-02-21T06:25:04.815Z,40.00
2019-02-21T06:30:01.051Z,36.83
2019-02-21T06:35:02.787Z,37.80
2019-02-21T06:39:57.713Z,38.13
2019-02-21T06:44:52.318Z,41.53
2019-02-21T06:49:46.963Z,36.53
2019-02-21T06:54:41.569Z,36.33
2019-02-21T06:59:43.230Z,35.00
2019-02-21T07:04:33.367Z,36.77
2019-02-21T07:09:28.288Z,35.80
2019-02-21T07:14:22.884Z,36.73
2019-02-21T07:19:17.473Z,33.97
2019-02-21T07:24:12.066Z,34.67
2019-02-21T07:29:06.690Z,33.97
2019-02-21T07:34:01.773Z,32.53
2019-02-21T07:39:13.637Z,33.93
2019-02-21T07:43:53.086Z,32.77
2019-02-21T07:48:47.649Z,32.80
2019-02-21T07:53:42.648Z,35.07
2019-02-21T07:58:39.548Z,33.60
2019-02-21T08:03:43.789Z,34.83
2019-02-21T08:08:32.348Z,34.80
2019-02-21T08:13:26.567Z,31.87
2019-02-21T08:18:21.251Z,29.10
2019-02-21T08:23:15.843Z,26.20
2019-02-21T08:28:11.303Z,25.30
2019-02-21T08:33:11.178Z,25.20
2019-02-21T08:38:06.350Z,24.47
2019-02-21T08:43:03.853Z,24.33
2019-02-21T08:47:57.499Z,27.57
2019-02-21T08:53:03.177Z,25.53
2019-02-21T08:58:02.529Z,26.30
2019-02-21T09:02:57.189Z,25.33
2019-02-21T09:07:51.875Z,25.57
2019-02-21T09:12:48.527Z,25.33
2019-02-21T09:17:42.899Z,25.50
2019-02-21T09:22:52.430Z,26.33
2019-02-21T09:27:51.475Z,27.63
2019-02-21T09:32:46.500Z,27.73
2019-02-21T09:38:00.830Z,28.00
2019-02-21T09:42:53.702Z,28.23
2019-02-21T09:47:49.098Z,30.30
2019-02-21T09:52:43.829Z,29.57
2019-02-21T09:57:38.532Z,30.30
2019-02-21T10:02:34.183Z,30.80
2019-02-21T10:07:29.727Z,33.57
2019-02-21T10:12:24.415Z,32.90
2019-02-21T10:17:19.095Z,33.63
2019-02-21T10:22:13.670Z,35.67
2019-02-21T10:27:08.280Z,36.80
2019-02-21T10:32:02.964Z,38.10
2019-02-21T10:37:00.543Z,37.40
2019-02-21T10:42:01.624Z,33.93
2019-02-21T10:47:02.158Z,30.83
2019-02-21T10:51:57.076Z,29.37
2019-02-21T10:56:51.774Z,28.50
2019-02-21T11:01:47.275Z,25.10
2019-02-21T11:06:42.052Z,27.00
2019-02-21T11:11:37.884Z,27.70
2019-02-21T11:16:32.590Z,26.83
2019-02-21T11:21:31.450Z,19.33
2019-02-21T11:26:26.599Z,19.67
2019-02-21T11:31:27.812Z,19.97
2019-02-21T11:36:29.019Z,21.57
2019-02-21T11:41:24.149Z,25.23
2019-02-21T11:46:18.871Z,22.93
2019-02-21T11:51:13.624Z,24.57
2019-02-21T11:56:15.783Z,29.23
2019-02-21T12:01:11.603Z,31.13
2019-02-21T12:06:06.345Z,26.67
2019-02-21T12:11:01.252Z,24.27
2019-02-21T12:15:55.929Z,27.73
2019-02-21T12:20:50.557Z,25.97
2019-02-21T12:25:45.222Z,28.37
2019-02-21T12:30:45.523Z,29.87
2019-02-21T12:35:40.486Z,28.37
2019-02-21T12:40:35.440Z,27.33
2019-02-21T12:45:30.241Z,27.40
2019-02-21T12:50:24.837Z,29.20
2019-02-21T12:55:27.952Z,29.50
2019-02-21T13:00:21.469Z,30.43
2019-02-21T13:05:16.287Z,28.73
2019-02-21T13:10:17.362Z,30.13
2019-02-21T13:15:15.497Z,28.83
2019-02-21T13:20:13.581Z,29.73
2019-02-21T13:25:12.410Z,31.70
2019-02-21T13:30:14.283Z,30.57
2019-02-21T13:35:10.604Z,29.13
2019-02-21T13:40:14.542Z,28.07
2019-02-21T13:45:12.053Z,25.83
2019-02-21T13:50:12.470Z,28.73
2019-02-21T13:55:08.223Z,28.47
2019-02-21T14:00:03.818Z,27.23
2019-02-21T14:04:58.987Z,26.70
2019-02-21T14:09:53.714Z,25.87
2019-02-21T14:14:48.298Z,26.57
2019-02-21T14:19:42.893Z,27.97
2019-02-21T14:24:44.822Z,26.33
2019-02-21T14:29:39.842Z,26.23
2019-02-21T14:34:34.403Z,25.73
2019-02-21T14:39:29.978Z,25.20
2019-02-21T14:44:25.350Z,26.87
2019-02-21T14:49:20.289Z,24.40
2019-02-21T14:54:16.487Z,25.47
2019-02-21T14:59:13.767Z,26.00
2019-02-21T15:04:08.422Z,24.20
2019-02-21T15:09:03.042Z,21.83
2019-02-21T15:13:57.751Z,22.33
2019-02-21T15:18:55.123Z,20.70
2019-02-21T15:23:48.773Z,20.43
2019-02-21T15:28:43.389Z,20.83
2019-02-21T15:33:38.071Z,21.90
2019-02-21T15:38:34.626Z,23.07
2019-02-21T15:43:29.563Z,20.57
2019-02-21T15:48:24.351Z,19.60
2019-02-21T15:53:19.073Z,18.43
2019-02-21T15:58:24.542Z,18.37
2019-02-21T16:03:19.144Z,17.47
2019-02-21T16:08:13.759Z,15.40
2019-02-21T16:13:08.568Z,13.80
2019-02-21T16:18:03.435Z,13.43
2019-02-21T16:22:58.264Z,12.83
2019-02-21T16:27:55.214Z,10.67
2019-02-21T16:32:49.410Z,10.90
2019-02-21T16:37:44.102Z,11.23
2019-02-21T16:42:38.693Z,12.50
2019-02-21T16:47:33.293Z,13.13
2019-02-21T16:52:28.000Z,13.50
2019-02-21T16:57:22.622Z,15.87
2019-02-21T17:02:17.201Z,15.53
2019-02-21T17:07:18.493Z,17.03
2019-02-21T17:12:08.124Z,15.83
2019-02-21T17:17:02.734Z,15.47
2019-02-21T17:21:57.303Z,15.37
2019-02-21T17:26:51.973Z,16.83
2019-02-21T17:31:46.690Z,17.30
2019-02-21T17:36:41.307Z,16.53
2019-02-21T17:41:35.896Z,16.27
2019-02-21T17:46:30.530Z,15.67
2019-02-21T17:51:25.167Z,17.40
2019-02-21T17:56:19.760Z,17.50
2019-02-21T18:01:14.350Z,16.70
2019-02-21T18:06:08.943Z,16.40
2019-02-21T18:11:06.353Z,15.77
2019-02-21T18:16:00.939Z,14.57
2019-02-21T18:20:55.526Z,13.60
2019-02-21T18:25:57.473Z,13.07
2019-02-21T18:30:52.077Z,14.63
2019-02-21T18:35:46.966Z,16.00
2019-02-21T18:40:41.619Z,18.00
2019-02-21T18:45:36.285Z,18.23
2019-02-21T18:50:38.319Z,16.67
2019-02-21T18:55:27.316Z,15.30
2019-02-21T19:00:24.770Z,13.33
2019-02-21T19:05:19.673Z,16.03
2019-02-21T19:10:19.630Z,12.27
2019-02-21T19:15:16.031Z,9.43
2019-02-21T19:20:14.144Z,10.47
2019-02-21T19:25:11.245Z,13.17
2019-02-21T19:30:22.355Z,10.27
2019-02-21T19:35:17.894Z,10.87
2019-02-21T19:40:12.746Z,11.33
2019-02-21T19:45:09.648Z,14.20
2019-02-21T19:50:06.884Z,13.10
2019-02-21T19:55:05.498Z,15.33
2019-02-21T20:00:00.360Z,14.97
2019-02-21T20:04:55.327Z,14.60
2019-02-21T20:09:50.043Z,13.53
2019-02-21T20:14:44.641Z,14.33
2019-02-21T20:19:39.311Z,12.77
2019-02-21T20:24:33.896Z,12.13
2019-02-21T20:29:28.568Z,12.40
2019-02-21T20:34:23.170Z,12.83
2019-02-21T20:39:17.845Z,12.20
2019-02-21T20:44:12.439Z,11.63
2019-02-21T20:49:07.135Z,14.00
2019-02-21T20:54:01.695Z,12.00
2019-02-21T20:58:56.354Z,11.33
2019-02-21T21:03:50.942Z,14.20
2019-02-21T21:08:46.728Z,14.97
2019-02-21T21:13:43.964Z,16.77
2019-02-21T21:18:37.777Z,15.93
2019-02-21T21:23:32.368Z,17.53
2019-02-21T21:28:26.958Z,16.87
2019-02-21T21:33:21.536Z,17.33
2019-02-21T21:38:23.762Z,15.57
2019-02-21T21:43:12.482Z,16.70
2019-02-21T21:48:07.136Z,16.10
2019-02-21T21:53:01.721Z,15.73
2019-02-21T21:57:56.320Z,15.40
2019-02-21T22:02:51.013Z,16.00
2019-02-21T22:07:45.583Z,16.93
2019-02-21T22:12:40.174Z,17.47
2019-02-21T22:17:34.776Z,17.70
2019-02-21T22:22:29.433Z,16.83
2019-02-21T22:27:24.831Z,17.00
2019-02-21T22:32:19.815Z,16.63
2019-02-21T22:37:14.385Z,16.77
2019-02-21T22:42:08.977Z,19.40
2019-02-21T22:47:03.558Z,17.20
2019-02-21T22:51:58.180Z,17.17
2019-02-21T22:56:52.809Z,15.73
2019-02-21T23:01:47.623Z,16.17
2019-02-21T23:06:58.411Z,18.20
2019-02-21T23:11:53.047Z,20.03
2019-02-21T23:16:48.177Z,19.13
2019-02-21T23:21:42.956Z,18.53
2019-02-21T23:26:37.612Z,17.13
2019-02-21T23:31:32.185Z,18.37
2019-02-21T23:36:26.776Z,18.20
2019-02-21T23:41:21.488Z,17.90
2019-02-21T23:46:16.117Z,16.23
2019-02-21T23:51:10.702Z,16.20
2019-02-21T23:56:05.355Z,15.50
